createdAt,value
2018-08-04T00:01:37.446Z,101390.63
2018-08-04T00:04:05.901Z,101389.53
2018-08-04T00:06:35.581Z,101391.84
2018-08-04T00:09:06.446Z,101392.67
2018-08-04T00:11:34.807Z,101375.86
2018-08-04T00:14:03.320Z,101376.66
2018-08-04T00:16:31.684Z,101380.59
2018-08-04T00:19:00.028Z,101375.80
2018-08-04T00:21:28.370Z,101372.19
2018-08-04T00:23:56.717Z,101378.47
2018-08-04T00:26:29.225Z,101372.76
2018-08-04T00:28:58.447Z,101368.70
2018-08-04T00:31:26.980Z,101368.64
2018-08-04T00:33:55.418Z,101381.64
2018-08-04T00:36:23.797Z,101375.16
2018-08-04T00:38:52.145Z,101372.28
2018-08-04T00:41:21.775Z,101375.82
2018-08-04T00:43:51.024Z,101375.52
2018-08-04T00:46:22.373Z,101369.80
2018-08-04T00:48:51.772Z,101370.63
2018-08-04T00:51:21.128Z,101367.50
2018-08-04T00:53:50.316Z,101369.03
2018-08-04T00:56:20.543Z,101366.13
2018-08-04T00:58:50.764Z,101368.36
2018-08-04T01:01:19.136Z,101366.14
2018-08-04T01:03:47.540Z,101362.45
2018-08-04T01:06:15.924Z,101365.77
2018-08-04T01:08:44.313Z,101357.96
2018-08-04T01:11:12.720Z,101357.77
2018-08-04T01:13:41.158Z,101350.39
2018-08-04T01:16:09.614Z,101352.78
2018-08-04T01:18:38.023Z,101354.86
2018-08-04T01:21:06.400Z,101356.03
2018-08-04T01:23:34.955Z,101350.90
2018-08-04T01:26:03.364Z,101348.14
2018-08-04T01:28:31.859Z,101353.06
2018-08-04T01:31:00.334Z,101349.74
2018-08-04T01:33:28.748Z,101350.73
2018-08-04T01:35:57.192Z,101348.30
2018-08-04T01:38:25.596Z,101347.88
2018-08-04T01:40:53.986Z,101345.14
2018-08-04T01:43:22.395Z,101348.19
2018-08-04T01:45:50.803Z,101343.25
2018-08-04T01:48:19.184Z,101337.56
2018-08-04T01:50:47.622Z,101339.45
2018-08-04T01:53:16.092Z,101343.26
2018-08-04T01:55:44.496Z,101336.83
2018-08-04T01:58:12.871Z,101343.11
2018-08-04T02:00:41.249Z,101347.45
2018-08-04T02:03:09.562Z,101341.17
2018-08-04T02:05:37.939Z,101341.38
2018-08-04T02:08:06.421Z,101348.00
2018-08-04T02:10:34.796Z,101346.79
2018-08-04T02:13:03.122Z,101346.05
2018-08-04T02:15:31.555Z,101340.12
2018-08-04T02:17:59.927Z,101344.32
2018-08-04T02:20:28.261Z,101339.47
2018-08-04T02:22:56.664Z,101334.13
2018-08-04T02:25:25.040Z,101333.81
2018-08-04T02:27:53.413Z,101335.94
2018-08-04T02:30:21.760Z,101324.22
2018-08-04T02:32:50.140Z,101333.11
2018-08-04T02:35:18.522Z,101326.25
2018-08-04T02:37:46.892Z,101327.90
2018-08-04T02:40:15.277Z,101324.05
2018-08-04T02:42:43.626Z,101327.46
2018-08-04T02:45:11.969Z,101326.45
2018-08-04T02:47:40.319Z,101325.66
2018-08-04T02:50:09.269Z,101321.73
2018-08-04T02:52:37.644Z,101323.97
2018-08-04T02:55:06.201Z,101320.72
2018-08-04T02:57:34.529Z,101325.84
2018-08-04T03:00:02.890Z,101326.55
2018-08-04T03:02:31.266Z,101321.77
2018-08-04T03:04:59.639Z,101321.41
2018-08-04T03:07:27.988Z,101327.22
2018-08-04T03:09:56.336Z,101329.98
2018-08-04T03:12:24.720Z,101331.52
2018-08-04T03:14:53.346Z,101332.88
2018-08-04T03:17:21.709Z,101329.20
2018-08-04T03:19:50.104Z,101328.92
2018-08-04T03:22:18.505Z,101329.67
2018-08-04T03:24:46.882Z,101331.04
2018-08-04T03:27:15.265Z,101326.19
2018-08-04T03:29:43.634Z,101329.79
2018-08-04T03:32:11.956Z,101327.62
2018-08-04T03:34:40.421Z,101332.95
2018-08-04T03:37:09.157Z,101329.23
2018-08-04T03:39:37.713Z,101330.87
2018-08-04T03:42:06.524Z,101328.81
2018-08-04T03:44:35.188Z,101326.78
2018-08-04T03:47:03.929Z,101328.48
2018-08-04T03:49:32.518Z,101330.87
2018-08-04T03:52:01.198Z,101328.97
2018-08-04T03:54:30.020Z,101329.08
2018-08-04T03:56:58.651Z,101328.99
2018-08-04T03:59:27.226Z,101325.54
2018-08-04T04:55:54.858Z,101332.00
2018-08-04T04:58:24.252Z,101328.84
2018-08-04T05:00:53.784Z,101328.13
2018-08-04T05:03:23.676Z,101333.42
2018-08-04T05:05:53.931Z,101328.92
2018-08-04T05:08:23.757Z,101322.70
2018-08-04T05:10:53.293Z,101326.11
2018-08-04T05:13:22.812Z,101325.19
2018-08-04T05:15:51.139Z,101330.36
2018-08-04T05:18:19.521Z,101330.12
2018-08-04T05:20:47.899Z,101337.65
2018-08-04T05:23:16.303Z,101332.25
2018-08-04T05:25:44.784Z,101332.52
2018-08-04T05:28:13.140Z,101331.34
2018-08-04T05:30:41.560Z,101331.03
2018-08-04T05:33:09.910Z,101328.45
2018-08-04T05:35:38.344Z,101330.48
2018-08-04T05:38:06.728Z,101335.77
2018-08-04T05:40:35.105Z,101331.06
2018-08-04T05:43:03.485Z,101330.15
2018-08-04T05:45:31.898Z,101336.75
2018-08-04T05:48:00.329Z,101330.23
2018-08-04T05:50:28.768Z,101331.59
2018-08-04T05:52:57.147Z,101329.72
2018-08-04T05:55:25.499Z,101328.98
2018-08-04T05:57:53.869Z,101330.91
2018-08-04T06:00:22.246Z,101328.45
2018-08-04T06:02:50.617Z,101323.81
2018-08-04T06:05:19.008Z,101330.86
2018-08-04T06:07:47.380Z,101325.89
2018-08-04T06:10:15.754Z,101322.44
2018-08-04T06:12:44.078Z,101327.29
2018-08-04T06:15:12.483Z,101318.84
2018-08-04T06:17:40.829Z,101325.98
2018-08-04T06:20:09.226Z,101319.80
2018-08-04T06:22:37.575Z,101325.34
2018-08-04T06:25:05.940Z,101319.72
2018-08-04T06:27:34.321Z,101314.63
2018-08-04T06:30:02.729Z,101307.22
2018-08-04T06:32:31.090Z,101306.19
2018-08-04T06:34:59.484Z,101301.64
2018-08-04T06:37:27.864Z,101306.58
2018-08-04T06:39:56.411Z,101312.00
2018-08-04T06:42:24.790Z,101308.31
2018-08-04T06:44:53.123Z,101307.66
2018-08-04T06:47:21.467Z,101306.85
2018-08-04T06:49:49.877Z,101303.84
2018-08-04T06:52:18.260Z,101300.23
2018-08-04T06:54:46.577Z,101297.24
2018-08-04T06:57:14.928Z,101298.61
2018-08-04T06:59:43.288Z,101297.85
2018-08-04T07:02:11.613Z,101298.09
2018-08-04T07:04:39.948Z,101296.27
2018-08-04T07:07:08.616Z,101293.41
2018-08-04T07:09:37.010Z,101296.83
2018-08-04T07:12:05.654Z,101287.66
2018-08-04T07:14:34.021Z,101290.88
2018-08-04T07:17:02.464Z,101291.16
2018-08-04T07:19:30.833Z,101287.50
2018-08-04T07:21:59.161Z,101282.00
2018-08-04T07:24:27.490Z,101278.19
2018-08-04T07:26:55.852Z,101276.09
2018-08-04T07:29:24.307Z,101272.69
2018-08-04T07:31:52.639Z,101272.03
2018-08-04T07:34:21.010Z,101270.03
2018-08-04T07:36:49.331Z,101269.78
2018-08-04T07:39:17.763Z,101268.73
2018-08-04T07:41:46.113Z,101268.26
2018-08-04T07:44:14.494Z,101267.52
2018-08-04T07:46:42.875Z,101268.34
2018-08-04T07:49:11.396Z,101270.61
2018-08-04T07:51:39.680Z,101271.41
2018-08-04T07:54:08.145Z,101273.42
2018-08-04T07:56:36.520Z,101278.77
2018-08-04T07:59:04.898Z,101266.27
2018-08-04T08:01:33.276Z,101262.22
2018-08-04T08:04:01.634Z,101270.38
2018-08-04T08:06:29.960Z,101258.25
2018-08-04T08:08:58.342Z,101266.32
2018-08-04T08:11:26.769Z,101267.56
2018-08-04T08:13:55.193Z,101271.32
2018-08-04T08:16:23.520Z,101264.25
2018-08-04T08:18:51.876Z,101266.81
2018-08-04T08:21:20.204Z,101256.77
2018-08-04T08:23:48.527Z,101248.86
2018-08-04T08:26:16.843Z,101255.23
2018-08-04T08:28:45.186Z,101251.66
2018-08-04T08:31:13.596Z,101249.36
2018-08-04T08:33:41.907Z,101255.94
2018-08-04T08:36:10.758Z,101241.75
2018-08-04T08:38:39.092Z,101238.33
2018-08-04T08:41:07.432Z,101240.62
2018-08-04T08:43:35.772Z,101232.95
2018-08-04T08:46:04.092Z,101238.70
2018-08-04T08:48:32.424Z,101238.04
2018-08-04T08:51:00.763Z,101238.05
2018-08-04T08:53:29.332Z,101239.45
2018-08-04T08:55:57.532Z,101235.84
2018-08-04T08:58:25.897Z,101232.31
2018-08-04T09:00:54.216Z,101237.24
2018-08-04T09:03:22.586Z,101229.53
2018-08-04T09:05:50.904Z,101229.56
2018-08-04T09:08:19.231Z,101229.32
2018-08-04T09:10:47.547Z,101225.03
2018-08-04T09:13:15.902Z,101235.28
2018-08-04T09:15:44.279Z,101225.49
2018-08-04T09:18:12.591Z,101224.09
2018-08-04T09:20:40.911Z,101229.30
2018-08-04T09:23:09.350Z,101231.12
2018-08-04T09:25:37.650Z,101226.98
2018-08-04T09:28:06.004Z,101226.63
2018-08-04T09:30:34.376Z,101221.83
2018-08-04T09:33:02.711Z,101218.84
2018-08-04T09:35:31.053Z,101223.21
2018-08-04T09:37:59.386Z,101223.06
2018-08-04T09:40:27.744Z,101226.09
2018-08-04T09:42:56.089Z,101224.72
2018-08-04T09:45:24.428Z,101216.87
2018-08-04T09:47:52.797Z,101220.67
2018-08-04T09:50:21.151Z,101217.53
2018-08-04T09:52:49.483Z,101214.74
2018-08-04T09:55:17.818Z,101211.29
2018-08-04T09:57:46.142Z,101212.31
2018-08-04T10:00:19.767Z,101206.86
2018-08-04T10:02:48.120Z,101200.26
2018-08-04T10:05:16.566Z,101207.52
2018-08-04T10:07:44.872Z,101202.48
2018-08-04T10:10:13.199Z,101198.58
2018-08-04T10:12:41.535Z,101198.68
2018-08-04T10:15:11.136Z,101190.34
2018-08-04T10:17:39.909Z,101196.88
2018-08-04T10:20:09.880Z,101197.30
2018-08-04T10:22:38.537Z,101194.03
2018-08-04T10:25:07.612Z,101196.16
2018-08-04T10:27:36.052Z,101187.34
2018-08-04T10:30:06.913Z,101186.14
2018-08-04T10:32:35.527Z,101183.37
2018-08-04T10:35:04.180Z,101186.28
2018-08-04T10:37:32.592Z,101185.07
2018-08-04T10:40:01.658Z,101181.28
2018-08-04T10:42:30.010Z,101177.31
2018-08-04T10:44:58.348Z,101175.31
2018-08-04T10:47:26.693Z,101176.27
2018-08-04T10:49:55.049Z,101176.02
2018-08-04T10:52:24.367Z,101179.83
2018-08-04T10:54:52.764Z,101176.30
2018-08-04T10:57:21.350Z,101166.26
2018-08-04T10:59:53.521Z,101169.44
2018-08-04T11:02:23.128Z,101164.78
2018-08-04T11:04:51.563Z,101158.27
2018-08-04T11:07:20.016Z,101168.67
2018-08-04T11:09:48.482Z,101162.45
2018-08-04T11:12:16.804Z,101167.88
2018-08-04T11:14:45.131Z,101171.19
2018-08-04T11:17:13.485Z,101171.45
2018-08-04T11:19:41.898Z,101167.80
2018-08-04T11:22:10.216Z,101166.17
2018-08-04T11:24:38.586Z,101160.75
2018-08-04T11:27:06.917Z,101157.89
2018-08-04T11:29:35.231Z,101162.27
2018-08-04T11:32:03.555Z,101159.23
2018-08-04T11:34:31.856Z,101161.53
2018-08-04T11:37:00.195Z,101155.61
2018-08-04T11:39:28.628Z,101154.80
2018-08-04T11:41:56.955Z,101150.73
2018-08-04T11:44:25.255Z,101155.53
2018-08-04T11:46:53.789Z,101151.13
2018-08-04T11:49:22.396Z,101151.84
2018-08-04T11:51:51.503Z,101158.18
2018-08-04T11:54:20.050Z,101155.08
2018-08-04T11:56:48.556Z,101157.88
2018-08-04T11:59:16.926Z,101151.86
2018-08-04T12:01:45.331Z,101149.37
2018-08-04T12:04:13.680Z,101150.95
2018-08-04T12:06:42.164Z,101149.73
2018-08-04T12:10:39.756Z,101150.37
2018-08-04T12:13:08.080Z,101144.94
2018-08-04T12:15:37.338Z,101144.31
2018-08-04T12:18:05.962Z,101138.59
2018-08-04T12:20:34.302Z,101131.61
2018-08-04T12:23:02.627Z,101135.95
2018-08-04T12:25:31.097Z,101135.32
2018-08-04T12:27:59.384Z,101129.39
2018-08-04T12:30:27.717Z,101135.13
2018-08-04T12:32:56.914Z,101132.67
2018-08-04T12:35:25.324Z,101126.67
2018-08-04T12:37:53.717Z,101122.91
2018-08-04T12:40:22.075Z,101121.54
2018-08-04T12:42:50.413Z,101130.30
2018-08-04T12:45:18.771Z,101126.77
2018-08-04T12:47:47.121Z,101125.16
2018-08-04T12:50:15.948Z,101121.61
2018-08-04T12:52:44.269Z,101121.64
2018-08-04T12:55:12.630Z,101123.64
2018-08-04T12:57:40.989Z,101122.66
2018-08-04T13:00:09.623Z,101118.34
2018-08-04T13:02:38.326Z,101111.63
2018-08-04T13:05:07.099Z,101117.41
2018-08-04T13:07:35.511Z,101108.94
2018-08-04T13:10:03.927Z,101107.63
2018-08-04T13:12:32.274Z,101114.22
2018-08-04T13:15:00.772Z,101101.87
2018-08-04T13:17:29.244Z,101099.73
2018-08-04T13:19:57.591Z,101089.73
2018-08-04T13:22:25.947Z,101092.29
2018-08-04T13:24:54.286Z,101092.07
2018-08-04T13:27:22.705Z,101091.48
2018-08-04T13:29:51.069Z,101089.48
2018-08-04T13:32:19.544Z,101087.12
2018-08-04T13:34:47.889Z,101083.80
2018-08-04T13:37:16.333Z,101080.84
2018-08-04T13:39:44.687Z,101080.09
2018-08-04T13:42:13.186Z,101080.25
2018-08-04T13:44:41.642Z,101080.03
2018-08-04T13:47:10.021Z,101079.02
2018-08-04T13:49:38.369Z,101081.80
2018-08-04T13:52:06.817Z,101081.55
2018-08-04T13:54:35.272Z,101091.08
2018-08-04T13:57:03.626Z,101081.13
2018-08-04T13:59:32.122Z,101082.59
2018-08-04T14:02:01.910Z,101081.16
2018-08-04T14:04:30.345Z,101085.33
2018-08-04T14:06:58.794Z,101080.56
2018-08-04T14:09:27.142Z,101079.53
2018-08-04T14:11:55.523Z,101075.17
2018-08-04T14:14:23.868Z,101076.05
2018-08-04T14:16:52.246Z,101068.69
2018-08-04T14:19:20.662Z,101074.36
2018-08-04T14:21:49.016Z,101072.38
2018-08-04T14:24:17.415Z,101076.37
2018-08-04T14:26:46.849Z,101075.55
2018-08-04T14:29:15.198Z,101068.47
2018-08-04T14:31:43.576Z,101064.05
2018-08-04T14:34:11.974Z,101057.63
2018-08-04T14:36:40.339Z,101059.13
2018-08-04T14:39:11.249Z,101053.02
2018-08-04T14:41:39.628Z,101053.73
2018-08-04T14:44:08.037Z,101045.58
2018-08-04T14:46:36.993Z,101047.89
2018-08-04T14:49:05.437Z,101046.47
2018-08-04T14:51:33.781Z,101045.80
2018-08-04T14:54:02.217Z,101039.59
2018-08-04T14:56:30.608Z,101032.25
2018-08-04T14:58:58.993Z,101035.02
2018-08-04T15:01:27.332Z,101033.50
2018-08-04T15:03:55.705Z,101028.95
2018-08-04T15:06:24.091Z,101023.66
2018-08-04T15:08:52.978Z,101021.82
2018-08-04T15:11:21.355Z,101031.14
2018-08-04T15:13:49.707Z,101030.20
2018-08-04T15:16:18.115Z,101023.87
2018-08-04T15:18:46.482Z,101021.11
2018-08-04T15:21:14.841Z,101013.63
2018-08-04T15:23:43.193Z,101017.98
2018-08-04T15:26:11.573Z,101020.95
2018-08-04T15:28:39.951Z,101018.11
2018-08-04T15:31:08.288Z,101019.76
2018-08-04T15:33:36.667Z,101013.89
2018-08-04T15:36:05.354Z,101018.30
2018-08-04T15:38:33.730Z,101017.97
2018-08-04T15:41:02.084Z,101020.05
2018-08-04T15:43:30.460Z,101020.58
2018-08-04T15:45:58.833Z,101019.23
2018-08-04T15:48:27.180Z,101020.16
2018-08-04T15:50:55.522Z,101022.34
2018-08-04T15:53:23.940Z,101020.91
2018-08-04T15:55:53.243Z,101021.30
2018-08-04T15:58:21.652Z,101013.63
2018-08-04T16:00:50.002Z,101016.81
2018-08-04T16:03:18.511Z,101016.81
2018-08-04T16:05:46.870Z,101025.45
2018-08-04T16:08:15.241Z,101022.53
2018-08-04T16:10:43.577Z,101025.69
2018-08-04T16:13:11.943Z,101028.81
2018-08-04T16:15:40.335Z,101031.59
2018-08-04T16:18:08.715Z,101030.91
2018-08-04T16:20:37.093Z,101029.96
2018-08-04T16:23:05.516Z,101033.09
2018-08-04T16:25:33.878Z,101024.36
2018-08-04T16:28:02.230Z,101038.05
2018-08-04T16:30:30.579Z,101037.73
2018-08-04T16:32:58.928Z,101036.34
2018-08-04T16:35:27.303Z,101037.95
2018-08-04T16:37:55.720Z,101038.54
2018-08-04T16:40:24.330Z,101036.30
2018-08-04T16:42:52.708Z,101040.98
2018-08-04T16:45:21.098Z,101049.63
2018-08-04T16:47:49.467Z,101055.61
2018-08-04T16:50:17.932Z,101053.90
2018-08-04T16:52:46.286Z,101050.85
2018-08-04T16:55:14.644Z,101052.62
2018-08-04T16:57:43.978Z,101058.16
2018-08-04T17:00:12.336Z,101061.84
2018-08-04T17:02:40.764Z,101063.92
2018-08-04T17:05:09.493Z,101066.87
2018-08-04T17:07:38.463Z,101066.70
2018-08-04T17:10:06.851Z,101065.00
2018-08-04T17:12:35.239Z,101075.18
2018-08-04T17:15:03.826Z,101080.30
2018-08-04T17:17:32.235Z,101076.18
2018-08-04T17:20:00.592Z,101075.86
2018-08-04T17:22:28.970Z,101073.66
2018-08-04T17:24:57.406Z,101079.41
2018-08-04T17:27:25.924Z,101079.62
2018-08-04T17:29:54.305Z,101091.72
2018-08-04T17:32:22.690Z,101088.83
2018-08-04T17:34:51.090Z,101090.05
2018-08-04T17:37:19.482Z,101089.41
2018-08-04T17:39:47.853Z,101088.39
2018-08-04T17:42:16.235Z,101092.78
2018-08-04T17:44:44.579Z,101090.38
2018-08-04T17:47:12.953Z,101094.41
2018-08-04T17:49:41.339Z,101092.01
2018-08-04T17:52:09.678Z,101094.82
2018-08-04T17:54:38.092Z,101101.54
2018-08-04T17:57:06.717Z,101096.73
2018-08-04T17:59:35.082Z,101093.97
2018-08-04T18:02:03.431Z,101094.86
2018-08-04T18:04:31.785Z,101095.06
2018-08-04T18:07:00.190Z,101094.27
2018-08-04T18:09:28.605Z,101100.01
2018-08-04T18:11:56.954Z,101095.89
2018-08-04T18:14:25.327Z,101098.36
2018-08-04T18:16:53.668Z,101099.61
2018-08-04T18:19:22.155Z,101107.09
2018-08-04T18:21:50.496Z,101104.52
2018-08-04T18:24:18.845Z,101103.68
2018-08-04T18:26:47.306Z,101103.68
2018-08-04T18:29:15.666Z,101103.02
2018-08-04T18:31:44.080Z,101104.95
2018-08-04T18:34:12.418Z,101109.81
2018-08-04T18:36:40.750Z,101102.93
2018-08-04T18:39:09.808Z,101116.80
2018-08-04T18:41:38.311Z,101115.09
2018-08-04T18:44:06.656Z,101116.11
2018-08-04T18:46:35.034Z,101121.19
2018-08-04T18:49:03.352Z,101121.03
2018-08-04T18:51:31.675Z,101130.40
2018-08-04T18:54:00.004Z,101123.00
2018-08-04T18:56:28.332Z,101129.73
2018-08-04T18:58:56.654Z,101134.58
2018-08-04T19:01:25.005Z,101136.97
2018-08-04T19:03:53.323Z,101131.31
2018-08-04T19:06:21.642Z,101139.45
2018-08-04T19:08:50.052Z,101142.20
2018-08-04T19:11:18.372Z,101148.08
2018-08-04T19:13:46.688Z,101145.50
2018-08-04T19:16:15.061Z,101140.34
2018-08-04T19:18:43.407Z,101146.57
2018-08-04T19:21:11.784Z,101140.53
2018-08-04T19:23:40.115Z,101144.84
2018-08-04T19:26:08.438Z,101143.31
2018-08-04T19:28:36.826Z,101153.84
2018-08-04T19:31:05.252Z,101150.91
2018-08-04T19:33:33.588Z,101154.38
2018-08-04T19:36:01.936Z,101158.30
2018-08-04T19:38:30.276Z,101154.16
2018-08-04T19:40:58.620Z,101161.07
2018-08-04T19:43:26.958Z,101160.21
2018-08-04T19:45:55.353Z,101167.27
2018-08-04T19:48:23.763Z,101166.41
2018-08-04T19:50:52.419Z,101167.98
2018-08-04T19:53:20.795Z,101171.58
2018-08-04T19:55:49.114Z,101177.09
2018-08-04T19:58:17.443Z,101178.46
2018-08-04T20:00:45.789Z,101188.08
2018-08-04T20:03:14.102Z,101191.48
2018-08-04T20:05:42.435Z,101205.09
2018-08-04T20:08:10.809Z,101201.41
2018-08-04T20:10:39.206Z,101210.17
2018-08-04T20:13:07.534Z,101211.92
2018-08-04T20:15:35.888Z,101215.13
2018-08-04T20:18:04.268Z,101214.07
2018-08-04T20:20:33.157Z,101215.09
2018-08-04T20:23:01.509Z,101212.30
2018-08-04T20:25:29.878Z,101212.42
2018-08-04T20:27:58.222Z,101211.20
2018-08-04T20:30:26.597Z,101213.75
2018-08-04T20:32:55.046Z,101210.78
2018-08-04T20:35:23.407Z,101206.30
2018-08-04T20:37:51.733Z,101215.41
2018-08-04T20:40:20.231Z,101207.28
2018-08-04T20:42:48.563Z,101204.84
2018-08-04T20:45:16.902Z,101213.72
2018-08-04T20:47:45.221Z,101214.41
2018-08-04T20:50:13.603Z,101214.66
2018-08-04T20:52:41.980Z,101216.19
2018-08-04T20:55:10.363Z,101215.64
2018-08-04T20:57:38.814Z,101215.84
2018-08-04T21:00:07.219Z,101213.92
2018-08-04T21:02:35.596Z,101213.41
2018-08-04T21:05:04.051Z,101211.11
2018-08-04T21:07:32.391Z,101204.73
2018-08-04T21:10:00.721Z,101207.84
2018-08-04T21:12:29.049Z,101207.78
2018-08-04T21:14:57.420Z,101212.25
2018-08-04T21:17:25.800Z,101215.18
2018-08-04T21:19:54.155Z,101215.66
2018-08-04T21:22:22.480Z,101218.77
2018-08-04T21:24:50.799Z,101218.70
2018-08-04T21:27:19.106Z,101216.12
2018-08-04T21:29:47.434Z,101220.24
2018-08-04T21:32:15.751Z,101216.73
2018-08-04T21:34:44.089Z,101217.59
2018-08-04T21:37:12.465Z,101216.42
2018-08-04T21:39:40.799Z,101215.53
2018-08-04T21:42:09.106Z,101219.28
2018-08-04T21:44:37.539Z,101215.50
2018-08-04T21:47:05.913Z,101219.94
2018-08-04T21:49:34.311Z,101225.44
2018-08-04T21:52:02.639Z,101227.13
2018-08-04T21:54:30.991Z,101230.56
2018-08-04T21:56:59.428Z,101230.19
2018-08-04T21:59:27.755Z,101236.65
2018-08-04T22:01:57.267Z,101236.65
2018-08-04T22:04:26.197Z,101236.61
2018-08-04T22:08:04.717Z,101240.39
2018-08-04T22:10:33.164Z,101241.42
2018-08-04T22:13:01.675Z,101246.63
2018-08-04T22:15:30.026Z,101244.73
2018-08-04T22:17:58.385Z,101249.55
2018-08-04T22:20:27.338Z,101248.17
2018-08-04T22:22:55.653Z,101248.35
2018-08-04T22:25:25.333Z,101242.97
2018-08-04T22:27:54.031Z,101239.11
2018-08-04T22:30:22.910Z,101243.92
2018-08-04T22:32:51.694Z,101244.53
2018-08-04T22:35:20.329Z,101251.36
2018-08-04T22:37:48.802Z,101255.27
2018-08-04T22:40:18.180Z,101254.58
2018-08-04T22:42:46.633Z,101249.73
2018-08-04T22:45:59.246Z,101248.40
2018-08-04T22:48:27.708Z,101250.19
2018-08-04T22:50:56.188Z,101254.60
2018-08-04T22:53:24.740Z,101253.92
2018-08-04T22:55:53.389Z,101250.77
2018-08-04T22:58:21.964Z,101254.98
2018-08-04T23:00:50.372Z,101254.22
2018-08-04T23:03:18.773Z,101248.77
2018-08-04T23:05:47.196Z,101254.22
2018-08-04T23:08:15.688Z,101255.76
2018-08-04T23:10:44.616Z,101251.38
2018-08-04T23:13:13.465Z,101256.17
2018-08-04T23:15:41.807Z,101248.62
2018-08-04T23:18:10.430Z,101243.59
2018-08-04T23:20:38.912Z,101235.91
2018-08-04T23:23:08.142Z,101233.88
2018-08-04T23:25:36.636Z,101230.19
2018-08-04T23:28:04.972Z,101241.23
2018-08-04T23:30:33.343Z,101232.42
2018-08-04T23:33:01.691Z,101237.34
2018-08-04T23:35:30.084Z,101233.35
2018-08-04T23:37:58.417Z,101245.66
2018-08-04T23:40:26.890Z,101241.14
2018-08-04T23:42:55.225Z,101241.14
2018-08-04T23:45:23.582Z,101241.66
2018-08-04T23:47:52.009Z,101245.50
2018-08-04T23:50:20.374Z,101249.84
2018-08-04T23:52:48.659Z,101250.08
2018-08-04T23:55:17.016Z,101260.30
2018-08-04T23:57:45.495Z,101257.64
